Time;durP1;ratioP1;P1;durP2;ratioP2;P2;SDS_P1;SDS_P2;PMS_P1;PMS_P2;Temp;Humidity;BMP_temperature;BMP_pressure;BME280_temperature;BME280_humidity;BME280_pressure;Samples;Min_cycle;Max_cycle;Signal;HPM_P1;HPM_P2
2023/07/04 00:01:46;;;;;;;15.13;4.25;;;14.90;99.90;;;;;;5081340;28;20501;-65
2023/07/04 00:04:13;;;;;;;14.95;4.03;;;14.90;99.90;;;;;;5078840;28;20474;-65
2023/07/04 00:06:39;;;;;;;13.95;3.95;;;14.90;99.90;;;;;;5085303;28;20493;-65
2023/07/04 00:09:07;;;;;;;13.33;4.10;;;14.80;99.90;;;;;;5063524;28;20408;-65
2023/07/04 00:11:33;;;;;;;13.35;3.92;;;14.80;99.90;;;;;;5078458;28;20418;-65
2023/07/04 00:13:58;;;;;;;11.67;4.07;;;14.90;99.90;;;;;;5090274;28;20409;-65
2023/07/04 00:16:24;;;;;;;14.60;4.37;;;14.80;99.90;;;;;;5089317;28;21011;-65
2023/07/04 00:18:50;;;;;;;13.60;3.90;;;14.80;99.90;;;;;;5091686;28;20405;-65
2023/07/04 00:21:17;;;;;;;11.70;3.80;;;14.80;99.90;;;;;;5090692;28;20487;-65
2023/07/04 00:23:45;;;;;;;15.38;3.97;;;14.80;99.90;;;;;;5086815;28;20407;-65
2023/07/04 00:26:15;;;;;;;14.32;4.10;;;14.80;99.90;;;;;;5066478;28;20416;-65
2023/07/04 00:28:42;;;;;;;14.20;4.13;;;14.80;99.90;;;;;;5090337;28;20423;-65
2023/07/04 00:31:10;;;;;;;12.55;3.97;;;14.70;99.90;;;;;;5069192;28;20427;-65
2023/07/04 00:33:36;;;;;;;14.10;4.07;;;14.50;99.90;;;;;;5090611;28;20899;-65
2023/07/04 00:36:05;;;;;;;14.38;4.03;;;14.80;99.90;;;;;;5091561;28;20410;-65
2023/07/04 00:38:35;;;;;;;11.90;4.10;;;14.70;99.90;;;;;;5090757;28;20402;-65
2023/07/04 00:41:13;;;;;;;14.70;4.10;;;14.70;99.90;;;;;;5089631;28;20463;-65
2023/07/04 00:44:07;;;;;;;12.13;3.97;;;14.70;99.90;;;;;;5089318;28;21025;-65
2023/07/04 00:47:10;;;;;;;14.10;4.13;;;14.70;99.90;;;;;;5084719;28;20409;-65
2023/07/04 00:49:42;;;;;;;14.77;3.85;;;14.70;99.90;;;;;;5083580;28;20750;-65
2023/07/04 00:52:13;;;;;;;11.88;3.88;;;14.70;99.90;;;;;;5068044;28;20414;-65
2023/07/04 00:54:43;;;;;;;11.85;4.10;;;14.70;99.90;;;;;;5072953;28;20425;-65
2023/07/04 00:57:10;;;;;;;11.10;3.60;;;14.70;99.90;;;;;;5091759;28;20464;-65
2023/07/04 00:59:44;;;;;;;12.68;3.55;;;14.70;99.90;;;;;;5096960;28;20405;-65
2023/07/04 01:02:19;;;;;;;11.80;3.65;;;14.70;99.90;;;;;;5082828;28;20403;-65
2023/07/04 01:04:48;;;;;;;12.82;3.83;;;14.70;99.90;;;;;;5084329;28;20733;-65
2023/07/04 01:07:16;;;;;;;13.52;3.90;;;14.70;99.90;;;;;;5091127;28;20463;-65
2023/07/04 01:09:50;;;;;;;13.87;3.80;;;14.70;99.90;;;;;;5090653;28;20562;-65
2023/07/04 01:12:18;;;;;;;11.02;3.80;;;14.70;99.90;;;;;;5071837;28;20766;-65
2023/07/04 01:14:44;;;;;;;11.70;3.50;;;14.60;99.90;;;;;;5089767;28;20414;-65
2023/07/04 01:17:10;;;;;;;17.23;3.75;;;14.60;99.90;;;;;;5090549;28;20473;-65
2023/07/04 01:19:38;;;;;;;12.18;3.78;;;14.60;99.90;;;;;;5088965;28;21123;-65
2023/07/04 01:22:37;;;;;;;11.23;3.63;;;14.60;99.90;;;;;;5088060;28;20753;-65
2023/07/04 01:25:15;;;;;;;14.27;3.92;;;14.50;99.90;;;;;;5088315;28;20425;-65
2023/07/04 01:27:43;;;;;;;11.30;3.78;;;14.50;99.90;;;;;;5067104;28;20500;-65
2023/07/04 01:30:10;;;;;;;10.60;3.80;;;14.50;99.90;;;;;;5090133;28;20417;-65
2023/07/04 01:32:36;;;;;;;11.40;3.85;;;14.50;99.90;;;;;;5088752;28;20748;-65
2023/07/04 01:35:03;;;;;;;14.18;4.25;;;14.40;99.90;;;;;;5089454;28;20422;-65
2023/07/04 01:37:29;;;;;;;13.13;3.65;;;14.40;99.90;;;;;;5090046;28;20899;-65
2023/07/04 01:39:59;;;;;;;11.52;3.80;;;14.40;99.90;;;;;;5089978;28;20406;-65
2023/07/04 01:42:31;;;;;;;11.27;3.70;;;14.60;99.90;;;;;;5068107;28;20414;-65
2023/07/04 01:45:01;;;;;;;13.23;4.07;;;14.30;99.90;;;;;;5087677;28;20418;-65
2023/07/04 01:47:32;;;;;;;11.77;3.92;;;14.30;99.90;;;;;;5086142;28;20436;-65
2023/07/04 01:49:58;;;;;;;10.15;3.75;;;14.30;99.90;;;;;;5087341;28;20402;-65
2023/07/04 01:52:24;;;;;;;13.20;3.83;;;14.30;99.90;;;;;;5086949;28;20772;-65
2023/07/04 01:54:50;;;;;;;9.55;3.88;;;14.30;99.90;;;;;;5088308;28;20413;-65
2023/07/04 01:57:16;;;;;;;13.00;3.75;;;14.40;99.90;;;;;;5090978;28;20398;-65
2023/07/04 01:59:42;;;;;;;10.83;3.43;;;14.30;99.90;;;;;;5087830;28;20786;-65
2023/07/04 02:02:07;;;;;;;10.43;3.60;;;14.20;99.90;;;;;;5086847;28;21223;-65
2023/07/04 02:04:33;;;;;;;10.77;3.65;;;14.20;99.90;;;;;;5088576;28;20878;-65
2023/07/04 02:06:59;;;;;;;12.35;3.50;;;14.20;99.90;;;;;;5087172;28;20398;-65
2023/07/04 02:09:24;;;;;;;9.93;3.50;;;14.20;99.90;;;;;;5089880;28;20402;-65
2023/07/04 02:11:50;;;;;;;11.20;4.07;;;14.20;99.90;;;;;;5082245;28;20409;-65
2023/07/04 02:14:17;;;;;;;10.18;3.65;;;14.00;99.90;;;;;;5087675;28;20421;-65
2023/07/04 02:16:43;;;;;;;12.68;3.92;;;14.10;99.90;;;;;;5089125;28;20482;-65
2023/07/04 02:19:09;;;;;;;11.38;3.65;;;14.20;99.90;;;;;;5088215;28;20883;-65
2023/07/04 02:21:35;;;;;;;13.02;4.00;;;14.10;99.90;;;;;;5084531;28;20488;-65
2023/07/04 02:24:04;;;;;;;12.10;3.90;;;14.10;99.90;;;;;;5068367;28;20398;-65
2023/07/04 02:26:32;;;;;;;10.05;3.83;;;14.10;99.90;;;;;;5086182;28;20410;-65
2023/07/04 02:28:58;;;;;;;11.00;3.92;;;14.10;99.90;;;;;;5088690;28;21833;-65
2023/07/04 02:31:24;;;;;;;10.75;4.15;;;14.10;99.90;;;;;;5073246;28;20451;-65
2023/07/04 02:33:51;;;;;;;13.67;3.83;;;14.00;99.90;;;;;;5086314;28;20477;-65
2023/07/04 02:36:17;;;;;;;10.23;4.00;;;14.00;99.90;;;;;;5082962;28;21054;-65
2023/07/04 02:38:43;;;;;;;12.73;3.80;;;14.00;99.90;;;;;;5081882;28;20426;-65
2023/07/04 02:41:09;;;;;;;14.20;4.30;;;14.10;99.90;;;;;;5089140;28;20519;-65
2023/07/04 02:43:36;;;;;;;11.40;4.28;;;14.00;99.90;;;;;;5085336;28;20459;-65
2023/07/04 02:46:03;;;;;;;10.48;4.10;;;14.00;99.90;;;;;;5085107;28;20930;-65
2023/07/04 02:48:30;;;;;;;11.68;4.05;;;14.00;99.90;;;;;;5082253;28;20512;-65
2023/07/04 02:50:56;;;;;;;9.55;4.00;;;14.00;99.90;;;;;;5089150;28;20493;-65
2023/07/04 02:53:22;;;;;;;14.15;4.20;;;14.10;99.90;;;;;;5086479;28;20508;-65
2023/07/04 02:55:52;;;;;;;13.38;4.40;;;14.00;99.90;;;;;;5088153;28;20410;-65
2023/07/04 02:58:19;;;;;;;15.20;4.40;;;14.00;99.90;;;;;;5070770;28;20398;-65
2023/07/04 03:00:48;;;;;;;13.90;4.22;;;14.00;99.90;;;;;;5089062;28;20814;-65
2023/07/04 03:03:14;;;;;;;11.43;4.05;;;14.00;99.90;;;;;;5085852;28;20413;-65
2023/07/04 03:05:40;;;;;;;13.98;4.30;;;14.00;99.90;;;;;;5065164;28;20413;-65
2023/07/04 03:08:06;;;;;;;11.97;4.43;;;14.10;99.90;;;;;;5088888;28;20886;-65
2023/07/04 03:10:32;;;;;;;12.50;4.45;;;14.00;99.90;;;;;;5088497;28;20458;-65
2023/07/04 03:12:58;;;;;;;12.30;4.50;;;14.00;99.90;;;;;;5084727;28;20922;-65
2023/07/04 03:17:57;;;;;;;12.13;3.97;;;14.00;99.90;;;;;;5000821;28;20789;-67
2023/07/04 03:20:23;;;;;;;11.90;4.20;;;14.00;99.90;;;;;;5000480;28;20404;-67
2023/07/04 03:22:49;;;;;;;12.30;4.57;;;14.00;99.90;;;;;;5005120;28;20416;-67
2023/07/04 03:25:15;;;;;;;14.00;4.53;;;14.00;99.90;;;;;;5005198;28;20409;-67
2023/07/04 03:27:41;;;;;;;10.48;4.03;;;14.00;99.90;;;;;;4990185;28;20960;-67
2023/07/04 03:30:09;;;;;;;12.63;4.43;;;14.00;99.90;;;;;;4984715;28;20426;-67
2023/07/04 03:32:35;;;;;;;12.73;4.28;;;14.00;99.90;;;;;;4986220;28;20792;-67
2023/07/04 03:35:01;;;;;;;11.65;4.47;;;14.00;99.90;;;;;;4985721;28;20572;-67
2023/07/04 03:37:35;;;;;;;13.70;4.97;;;14.00;99.90;;;;;;4987114;28;20966;-66
2023/07/04 03:40:04;;;;;;;10.40;4.30;;;14.00;99.90;;;;;;4989035;28;20413;-67
2023/07/04 03:42:29;;;;;;;15.65;5.03;;;13.90;99.90;;;;;;4981928;28;20776;-67
2023/07/04 03:44:55;;;;;;;12.43;5.00;;;14.00;99.90;;;;;;4986521;28;20436;-67
2023/07/04 03:47:20;;;;;;;13.77;5.40;;;14.00;99.90;;;;;;4982112;28;20414;-67
2023/07/04 03:49:46;;;;;;;13.27;4.90;;;14.00;99.90;;;;;;4990086;28;20406;-67
2023/07/04 03:52:12;;;;;;;13.20;4.90;;;14.00;99.90;;;;;;4994006;28;20994;-67
2023/07/04 03:54:37;;;;;;;15.00;4.97;;;14.10;99.90;;;;;;4985914;28;20951;-67
2023/07/04 03:57:03;;;;;;;12.43;5.00;;;14.00;99.90;;;;;;4995259;28;20415;-67
2023/07/04 03:59:29;;;;;;;12.37;5.13;;;14.00;99.90;;;;;;4990465;28;20422;-67
2023/07/04 04:01:55;;;;;;;13.47;5.57;;;14.00;99.90;;;;;;4988614;28;20422;-67
2023/07/04 04:04:20;;;;;;;14.47;5.00;;;14.00;99.90;;;;;;4985945;28;20425;-67
2023/07/04 04:06:51;;;;;;;13.98;5.05;;;14.00;99.90;;;;;;4992156;28;20420;-67
2023/07/04 04:09:17;;;;;;;13.30;4.80;;;14.30;99.90;;;;;;4989050;28;20414;-67
2023/07/04 04:11:42;;;;;;;13.60;4.97;;;14.00;99.90;;;;;;4988876;28;20463;-67
2023/07/04 04:14:09;;;;;;;13.32;5.15;;;14.00;99.90;;;;;;4985515;28;20850;-67
2023/07/04 04:16:35;;;;;;;14.77;4.68;;;14.10;99.90;;;;;;4993154;28;20468;-67
2023/07/04 04:19:01;;;;;;;12.18;4.30;;;14.00;99.90;;;;;;4988565;28;20411;-67
2023/07/04 04:21:27;;;;;;;14.52;4.78;;;14.10;99.90;;;;;;4987699;28;20419;-67
2023/07/04 04:23:52;;;;;;;13.63;4.80;;;14.20;99.90;;;;;;4985626;28;20433;-67
2023/07/04 04:26:22;;;;;;;10.77;4.50;;;14.10;99.90;;;;;;4985036;28;20423;-67
2023/07/04 04:28:48;;;;;;;13.50;4.30;;;14.10;99.90;;;;;;4975645;28;20445;-67
2023/07/04 04:31:14;;;;;;;10.73;4.43;;;14.20;99.90;;;;;;4985345;28;20422;-67
2023/07/04 04:33:40;;;;;;;12.70;4.47;;;14.10;99.90;;;;;;4987055;28;20428;-67
2023/07/04 04:36:06;;;;;;;12.18;4.10;;;14.10;99.90;;;;;;4982105;28;20456;-67
2023/07/04 04:38:32;;;;;;;10.93;3.80;;;14.10;99.90;;;;;;4987905;28;20860;-67
2023/07/04 04:41:06;;;;;;;10.88;3.72;;;14.10;99.90;;;;;;4984530;28;20509;-66
2023/07/04 04:43:35;;;;;;;11.25;3.70;;;14.10;99.90;;;;;;4979365;28;20427;-67
2023/07/04 04:46:01;;;;;;;11.23;3.72;;;14.40;99.90;;;;;;4985083;28;20411;-67
2023/07/04 04:48:35;;;;;;;9.30;3.37;;;14.10;99.90;;;;;;4981378;28;20492;-67
2023/07/04 04:51:09;;;;;;;9.45;3.58;;;14.10;99.90;;;;;;4981977;28;20813;-67
2023/07/04 04:53:35;;;;;;;9.45;3.25;;;14.20;99.90;;;;;;4982930;28;20993;-66
2023/07/04 04:56:05;;;;;;;8.98;3.22;;;14.20;99.90;;;;;;4982937;28;20441;-65
2023/07/04 04:58:31;;;;;;;9.07;3.42;;;14.20;99.90;;;;;;4980476;28;20469;-67
2023/07/04 05:00:56;;;;;;;7.88;3.00;;;14.20;99.90;;;;;;4983107;28;20450;-66
2023/07/04 05:03:23;;;;;;;10.30;3.50;;;14.40;99.90;;;;;;4978014;28;20406;-67
2023/07/04 05:05:49;;;;;;;10.07;3.45;;;14.20;99.90;;;;;;4988164;28;20999;-67
2023/07/04 05:08:14;;;;;;;9.73;3.00;;;14.20;99.90;;;;;;4987381;28;20570;-67
2023/07/04 05:10:40;;;;;;;11.40;3.40;;;14.20;99.90;;;;;;4986098;28;20456;-67
2023/07/04 05:13:05;;;;;;;10.23;3.00;;;14.20;99.90;;;;;;4992939;28;20418;-67
2023/07/04 05:15:31;;;;;;;9.50;2.93;;;14.20;99.90;;;;;;4988441;28;20425;-67
2023/07/04 05:17:57;;;;;;;10.07;3.40;;;14.20;99.90;;;;;;4989974;28;20410;-67
2023/07/04 05:20:24;;;;;;;10.18;2.90;;;14.20;99.90;;;;;;4992173;28;20799;-67
2023/07/04 05:22:53;;;;;;;11.57;2.97;;;14.40;99.90;;;;;;4991238;28;20419;-67
2023/07/04 05:25:19;;;;;;;9.20;3.15;;;14.30;99.90;;;;;;4977516;28;20439;-67
2023/07/04 05:27:45;;;;;;;8.50;2.60;;;14.40;99.90;;;;;;4983819;28;20431;-66
2023/07/04 05:30:11;;;;;;;11.63;3.10;;;14.30;99.90;;;;;;4984992;28;20824;-68
2023/07/04 05:32:37;;;;;;;6.40;2.67;;;14.30;99.90;;;;;;4990692;28;20410;-68
2023/07/04 05:35:03;;;;;;;8.37;2.63;;;14.40;99.90;;;;;;4984572;28;20425;-67
2023/07/04 05:37:29;;;;;;;6.68;2.60;;;14.40;99.90;;;;;;4979772;28;20422;-67
2023/07/04 05:39:56;;;;;;;7.35;2.63;;;14.40;99.90;;;;;;4982130;28;20483;-68
2023/07/04 05:42:24;;;;;;;6.95;2.80;;;14.60;99.90;;;;;;4988081;28;20410;-67
2023/07/04 05:44:50;;;;;;;8.20;2.63;;;14.60;99.90;;;;;;4983659;28;20460;-66
2023/07/04 05:47:15;;;;;;;8.93;2.60;;;14.50;99.90;;;;;;4987785;28;20836;-68
2023/07/04 05:49:41;;;;;;;9.17;3.10;;;14.60;99.90;;;;;;4985861;28;20414;-67
2023/07/04 05:52:07;;;;;;;6.13;2.73;;;14.60;99.90;;;;;;4986492;28;20900;-67
2023/07/04 05:54:32;;;;;;;10.53;2.90;;;14.60;99.90;;;;;;4986738;28;20499;-67
2023/07/04 05:56:58;;;;;;;10.70;2.77;;;14.70;99.90;;;;;;4987463;28;20403;-68
2023/07/04 05:59:24;;;;;;;6.50;2.70;;;14.60;99.90;;;;;;4987669;28;20630;-67
2023/07/04 06:01:53;;;;;;;8.30;2.92;;;14.70;99.90;;;;;;4985175;28;20493;-67
2023/07/04 06:04:19;;;;;;;8.68;2.78;;;14.70;99.90;;;;;;4974477;28;20399;-67
2023/07/04 06:06:51;;;;;;;7.22;2.90;;;14.70;99.90;;;;;;4987676;28;20405;-67
2023/07/04 06:09:20;;;;;;;9.63;2.72;;;14.80;99.90;;;;;;4986467;28;20406;-67
2023/07/04 06:11:48;;;;;;;7.95;2.70;;;14.80;99.90;;;;;;4979475;28;20902;-67
2023/07/04 06:14:26;;;;;;;9.13;2.70;;;14.80;99.90;;;;;;4983618;28;20451;-67
2023/07/04 06:16:52;;;;;;;9.87;2.60;;;14.90;99.90;;;;;;4987158;28;20431;-67
2023/07/04 06:19:19;;;;;;;10.68;2.70;;;14.90;99.90;;;;;;4979643;28;20838;-67
2023/07/04 06:21:45;;;;;;;7.05;2.70;;;15.00;99.90;;;;;;4977643;28;20415;-68
2023/07/04 06:24:11;;;;;;;7.30;2.40;;;15.10;99.90;;;;;;4982502;28;20918;-68
2023/07/04 06:26:37;;;;;;;7.78;2.35;;;15.10;99.90;;;;;;4983773;28;20448;-66
2023/07/04 06:29:02;;;;;;;6.80;2.23;;;15.10;99.90;;;;;;4985672;28;20438;-66
2023/07/04 06:31:28;;;;;;;7.97;2.30;;;15.20;99.90;;;;;;4983776;28;20425;-66
2023/07/04 06:33:55;;;;;;;6.63;2.30;;;15.20;99.90;;;;;;4985715;28;20407;-66
2023/07/04 06:36:20;;;;;;;8.63;2.70;;;15.30;99.90;;;;;;4985779;28;20510;-66
2023/07/04 06:38:46;;;;;;;9.98;2.58;;;15.40;99.90;;;;;;4983396;28;20497;-66
2023/07/04 06:41:14;;;;;;;7.47;2.30;;;15.40;99.90;;;;;;4987924;28;20413;-66
2023/07/04 06:43:45;;;;;;;7.15;2.60;;;15.50;99.90;;;;;;4986164;28;20398;-66
2023/07/04 06:46:13;;;;;;;6.03;2.53;;;15.60;99.90;;;;;;4984397;28;20445;-67
2023/07/04 06:48:39;;;;;;;6.28;2.45;;;15.60;99.90;;;;;;4981667;28;20815;-66
2023/07/04 06:51:07;;;;;;;7.47;2.40;;;15.60;99.90;;;;;;4981036;28;20465;-66
2023/07/04 06:53:34;;;;;;;6.82;2.67;;;15.60;99.90;;;;;;4986932;28;20402;-66
2023/07/04 06:56:09;;;;;;;8.70;2.40;;;15.70;99.90;;;;;;4980563;28;20428;-67
2023/07/04 06:58:43;;;;;;;8.20;2.50;;;15.70;99.90;;;;;;4981539;28;20408;-66
2023/07/04 07:01:10;;;;;;;9.98;2.47;;;15.80;99.90;;;;;;4982014;28;20400;-66
2023/07/04 07:03:37;;;;;;;7.47;2.22;;;15.80;99.90;;;;;;4987116;28;20425;-66
2023/07/04 07:06:05;;;;;;;9.18;2.42;;;15.90;99.90;;;;;;4976724;28;20506;-66
2023/07/04 07:08:31;;;;;;;6.90;2.37;;;15.90;99.90;;;;;;4984926;28;20926;-66
2023/07/04 07:10:58;;;;;;;6.32;2.10;;;15.90;99.90;;;;;;4975812;28;20921;-66
2023/07/04 07:13:25;;;;;;;6.43;2.15;;;15.90;99.90;;;;;;4979016;28;20437;-65
2023/07/04 07:15:51;;;;;;;8.98;2.50;;;15.90;99.90;;;;;;4977548;28;20449;-67
2023/07/04 07:18:17;;;;;;;11.48;2.40;;;16.00;99.90;;;;;;4982148;28;20411;-66
2023/07/04 07:20:43;;;;;;;9.10;2.20;;;16.00;99.90;;;;;;4981111;28;20463;-66
2023/07/04 07:23:10;;;;;;;9.15;2.55;;;16.10;99.90;;;;;;4980965;28;20419;-66
2023/07/04 07:25:37;;;;;;;6.63;2.30;;;16.10;99.90;;;;;;4978793;28;20407;-65
2023/07/04 07:28:03;;;;;;;10.55;2.40;;;16.20;99.90;;;;;;4986450;28;20480;-65
2023/07/04 07:30:28;;;;;;;8.50;2.10;;;16.30;99.90;;;;;;4995593;28;20430;-65
2023/07/04 07:32:54;;;;;;;9.90;2.13;;;16.40;99.90;;;;;;4983088;28;20412;-65
2023/07/04 07:35:20;;;;;;;11.20;2.47;;;16.50;99.90;;;;;;4986275;28;20422;-65
2023/07/04 07:37:45;;;;;;;7.90;2.55;;;16.60;99.90;;;;;;4986821;28;20476;-66
2023/07/04 07:40:11;;;;;;;8.45;2.60;;;16.60;99.90;;;;;;4978253;28;20466;-65
2023/07/04 07:42:37;;;;;;;11.95;2.55;;;16.70;99.90;;;;;;4984316;28;20419;-66
2023/07/04 07:45:03;;;;;;;10.45;2.40;;;16.80;99.90;;;;;;4984162;28;20410;-65
2023/07/04 07:47:29;;;;;;;8.80;2.38;;;16.80;99.90;;;;;;4982957;28;20415;-65
2023/07/04 07:49:55;;;;;;;8.90;2.57;;;16.90;99.90;;;;;;4983526;28;20534;-67
2023/07/04 07:52:21;;;;;;;11.02;2.55;;;17.00;99.90;;;;;;4971000;28;20518;-67
2023/07/04 07:54:47;;;;;;;11.63;2.70;;;17.20;99.90;;;;;;4985121;28;20436;-65
2023/07/04 07:57:12;;;;;;;9.95;2.60;;;17.10;99.90;;;;;;4981188;28;20442;-65
2023/07/04 07:59:38;;;;;;;8.53;2.33;;;17.10;99.90;;;;;;4984218;28;20431;-63
2023/07/04 08:02:04;;;;;;;9.60;2.40;;;17.10;99.90;;;;;;4985727;28;20490;-65
2023/07/04 08:04:30;;;;;;;9.25;2.47;;;17.20;99.90;;;;;;4985868;28;20413;-65
2023/07/04 08:06:55;;;;;;;11.37;2.67;;;17.20;99.90;;;;;;4985847;28;20406;-63
2023/07/04 08:09:21;;;;;;;13.25;2.83;;;17.20;99.90;;;;;;4984671;28;20448;-63
2023/07/04 08:11:48;;;;;;;9.65;2.78;;;17.30;99.90;;;;;;4991107;28;20416;-63
2023/07/04 08:14:15;;;;;;;10.80;2.88;;;17.40;99.90;;;;;;4992439;28;20452;-63
2023/07/04 08:16:48;;;;;;;11.18;2.90;;;17.40;99.90;;;;;;4984511;28;20407;-63
2023/07/04 08:19:16;;;;;;;9.38;2.75;;;17.40;99.90;;;;;;4978924;28;20410;-64
2023/07/04 08:21:42;;;;;;;9.75;2.72;;;17.40;99.90;;;;;;4986641;28;20409;-64
2023/07/04 08:24:12;;;;;;;12.35;2.78;;;17.60;99.90;;;;;;4987340;28;20493;-65
2023/07/04 08:26:39;;;;;;;10.87;2.70;;;17.60;99.90;;;;;;4982860;28;20411;-63
2023/07/04 08:29:07;;;;;;;9.98;2.63;;;17.60;99.90;;;;;;4984972;28;20422;-63
2023/07/04 08:31:33;;;;;;;12.02;3.42;;;17.70;99.90;;;;;;4986074;28;20750;-65
2023/07/04 08:33:59;;;;;;;10.90;2.90;;;17.70;99.90;;;;;;4989922;28;20431;-64
2023/07/04 08:36:25;;;;;;;10.77;3.10;;;17.60;99.90;;;;;;4988691;28;20422;-64
2023/07/04 08:38:51;;;;;;;12.48;2.88;;;17.60;99.90;;;;;;4987975;28;20413;-64
2023/07/04 08:41:26;;;;;;;12.87;2.90;;;17.70;99.90;;;;;;4984528;28;20402;-64
2023/07/04 08:44:15;;;;;;;9.57;3.05;;;17.70;99.90;;;;;;4971586;28;20452;-63
2023/07/04 08:46:49;;;;;;;10.27;2.70;;;17.70;99.90;;;;;;4991145;28;20417;-64
2023/07/04 08:49:41;;;;;;;12.75;3.05;;;17.60;99.90;;;;;;4989500;28;20776;-63
2023/07/04 08:52:17;;;;;;;8.50;2.50;;;17.50;99.90;;;;;;4982638;28;20424;-63
2023/07/04 08:54:43;;;;;;;11.82;3.15;;;17.50;99.90;;;;;;4980721;28;20437;-64
2023/07/04 08:57:26;;;;;;;11.60;2.63;;;17.40;99.90;;;;;;4987658;28;20407;-64
2023/07/04 08:59:59;;;;;;;17.40;3.20;;;17.30;99.90;;;;;;4989372;28;20493;-63
2023/07/04 09:02:46;;;;;;;12.65;2.83;;;17.30;99.90;;;;;;4996684;28;20494;-62
2023/07/04 09:05:20;;;;;;;14.10;3.22;;;17.10;99.90;;;;;;4988510;28;20442;-62
2023/07/04 09:08:00;;;;;;;13.65;3.05;;;17.00;99.90;;;;;;4971254;28;20434;-62
2023/07/04 09:10:46;;;;;;;10.25;2.47;;;16.80;99.90;;;;;;4984321;28;20407;-64
2023/07/04 09:13:20;;;;;;;8.15;2.70;;;16.70;99.90;;;;;;4987620;28;21988;-64
2023/07/04 09:15:47;;;;;;;9.13;2.50;;;16.80;99.90;;;;;;4984998;28;20431;-65
2023/07/04 09:18:52;;;;;;;8.30;2.75;;;16.80;99.90;;;;;;5002131;23;20472;-63
2023/07/04 09:21:20;;;;;;;8.88;2.60;;;17.00;99.90;;;;;;4976084;28;20484;-63
2023/07/04 09:23:48;;;;;;;9.73;2.77;;;17.30;99.90;;;;;;4985965;28;20851;-65
2023/07/04 09:26:22;;;;;;;9.98;2.75;;;17.70;99.90;;;;;;4987164;28;20430;-66
2023/07/04 09:28:51;;;;;;;14.68;3.20;;;18.00;99.90;;;;;;4973105;28;20995;-66
2023/07/04 09:31:23;;;;;;;14.00;3.25;;;18.40;99.90;;;;;;4974903;28;20396;-66
2023/07/04 09:33:52;;;;;;;12.52;3.22;;;18.60;99.90;;;;;;4981847;28;20442;-66
2023/07/04 09:36:19;;;;;;;10.60;3.20;;;18.80;99.90;;;;;;4976486;28;20933;-65
2023/07/04 09:38:56;;;;;;;9.80;2.83;;;19.10;99.90;;;;;;4965937;28;20474;-65
2023/07/04 09:41:28;;;;;;;11.75;3.22;;;19.30;99.90;;;;;;4967557;28;20821;-65
2023/07/04 09:44:17;;;;;;;9.95;2.78;;;19.50;99.90;;;;;;4962006;28;20478;-65
2023/07/04 09:46:51;;;;;;;11.30;3.30;;;19.80;99.90;;;;;;4976489;28;20551;-65
2023/07/04 09:49:22;;;;;;;9.35;3.05;;;20.10;99.90;;;;;;4976577;28;20408;-65
2023/07/04 09:52:17;;;;;;;7.75;2.70;;;20.30;99.90;;;;;;4968955;28;20463;-66
2023/07/04 09:54:44;;;;;;;11.50;2.70;;;20.50;99.90;;;;;;4969870;28;20455;-66
2023/07/04 09:57:20;;;;;;;7.85;2.63;;;20.60;99.50;;;;;;4967118;28;20412;-66
2023/07/04 09:59:53;;;;;;;10.65;2.95;;;20.70;99.20;;;;;;4967256;28;20404;-65
2023/07/04 10:02:30;;;;;;;8.27;2.70;;;20.90;98.40;;;;;;4964636;28;20892;-66
2023/07/04 10:04:56;;;;;;;10.88;2.90;;;21.10;98.50;;;;;;4965594;28;20428;-65
2023/07/04 10:07:24;;;;;;;10.07;3.13;;;21.20;98.30;;;;;;4967294;28;20439;-65
2023/07/04 10:09:57;;;;;;;11.75;3.10;;;21.00;97.50;;;;;;4974607;28;20403;-65
2023/07/04 10:12:25;;;;;;;11.85;3.28;;;20.80;97.50;;;;;;4965449;28;20903;-65
2023/07/04 10:14:54;;;;;;;8.45;2.88;;;20.80;98.60;;;;;;4970048;28;20455;-65
2023/07/04 10:17:29;;;;;;;9.27;3.00;;;20.70;97.40;;;;;;4967603;28;20499;-65
2023/07/04 10:19:57;;;;;;;9.98;3.15;;;20.50;97.90;;;;;;4970299;28;20478;-65
2023/07/04 10:22:34;;;;;;;10.73;2.97;;;20.20;98.50;;;;;;4967200;28;20451;-65
2023/07/04 10:25:01;;;;;;;10.43;2.90;;;19.90;99.10;;;;;;4976962;28;20411;-65
2023/07/04 10:27:35;;;;;;;12.35;3.00;;;19.80;98.50;;;;;;4966395;28;20466;-66
2023/07/04 10:30:06;;;;;;;10.30;3.40;;;19.50;98.70;;;;;;4971797;28;20439;-66
2023/07/04 10:32:40;;;;;;;12.05;3.47;;;19.30;99.90;;;;;;4966780;28;20417;-65
2023/07/04 10:35:11;;;;;;;11.57;3.30;;;19.20;99.90;;;;;;4967318;28;20795;-65
2023/07/04 10:37:38;;;;;;;10.38;3.08;;;19.10;99.90;;;;;;4961079;28;20426;-65
2023/07/04 10:40:09;;;;;;;11.45;3.55;;;19.00;99.90;;;;;;4967346;28;20408;-65
2023/07/04 10:42:59;;;;;;;12.18;3.30;;;18.90;99.90;;;;;;4974984;28;20421;-65
2023/07/04 10:45:27;;;;;;;13.23;3.40;;;18.70;99.90;;;;;;4962709;28;20424;-67
2023/07/04 10:47:57;;;;;;;9.02;2.90;;;18.70;99.90;;;;;;4966546;28;20928;-65
2023/07/04 10:50:36;;;;;;;10.90;3.35;;;18.60;99.90;;;;;;4967372;28;20423;-65
2023/07/04 10:53:02;;;;;;;11.02;2.83;;;18.70;99.90;;;;;;4966546;28;20440;-65
2023/07/04 10:55:37;;;;;;;12.25;3.13;;;18.60;99.20;;;;;;4965814;28;20460;-65
2023/07/04 10:58:13;;;;;;;9.38;3.00;;;18.70;98.00;;;;;;4965216;28;20413;-65
2023/07/04 11:00:44;;;;;;;9.68;2.80;;;18.80;98.10;;;;;;4970120;28;20470;-65
2023/07/04 11:03:57;;;;;;;11.32;3.03;;;18.90;98.30;;;;;;4965325;28;20430;-65
2023/07/04 11:07:03;;;;;;;8.48;2.63;;;19.10;99.10;;;;;;4961568;28;20436;-65
2023/07/04 11:09:35;;;;;;;10.70;2.78;;;19.50;98.00;;;;;;4971892;28;20913;-65
2023/07/04 11:12:05;;;;;;;14.23;2.97;;;19.70;96.80;;;;;;4966252;28;20416;-65
2023/07/04 11:14:32;;;;;;;10.75;2.50;;;19.70;96.00;;;;;;4974836;28;20451;-65
2023/07/04 11:17:04;;;;;;;10.55;2.67;;;19.70;96.00;;;;;;4965864;28;20497;-65
2023/07/04 11:19:35;;;;;;;11.43;2.65;;;19.70;96.20;;;;;;4966343;28;20421;-65
2023/07/04 11:22:02;;;;;;;10.75;3.20;;;19.90;96.70;;;;;;4967680;28;20416;-65
2023/07/04 11:24:37;;;;;;;11.00;4.13;;;20.00;96.10;;;;;;4970041;28;20778;-65
2023/07/04 11:27:09;;;;;;;9.20;3.63;;;19.90;95.90;;;;;;4960502;28;20865;-65
2023/07/04 11:29:52;;;;;;;11.98;3.53;;;19.80;96.00;;;;;;4970652;28;20430;-65
2023/07/04 11:32:38;;;;;;;15.90;5.15;;;19.50;96.40;;;;;;4957569;28;20941;-65
2023/07/04 11:35:09;;;;;;;10.15;3.85;;;19.40;96.60;;;;;;4948647;28;20468;-65
2023/07/04 11:37:54;;;;;;;11.15;3.25;;;19.20;96.00;;;;;;4965568;28;20891;-65
2023/07/04 11:40:29;;;;;;;11.15;3.53;;;19.30;96.50;;;;;;4959687;28;20594;-65
2023/07/04 11:43:06;;;;;;;11.15;2.60;;;19.50;96.40;;;;;;4964883;28;20400;-65
2023/07/04 11:45:32;;;;;;;8.27;2.55;;;20.10;94.60;;;;;;4956496;28;20506;-65
2023/07/04 11:48:04;;;;;;;10.20;2.70;;;20.60;93.20;;;;;;4963416;28;20431;-66
2023/07/04 11:50:45;;;;;;;11.30;2.85;;;20.90;93.20;;;;;;4960544;28;20431;-66
2023/07/04 11:53:22;;;;;;;10.18;3.30;;;21.30;94.20;;;;;;4966559;28;20937;-66
2023/07/04 11:56:16;;;;;;;8.55;2.72;;;21.50;93.90;;;;;;4972544;28;20439;-66
2023/07/04 11:58:43;;;;;;;9.65;3.00;;;21.50;93.40;;;;;;4968002;28;20470;-66
2023/07/04 12:01:09;;;;;;;11.30;2.70;;;21.50;93.40;;;;;;4969931;28;20450;-65
2023/07/04 12:03:35;;;;;;;7.53;2.50;;;21.60;92.20;;;;;;4977002;28;20410;-66
2023/07/04 12:06:01;;;;;;;9.02;2.60;;;21.50;89.60;;;;;;4976128;28;20408;-66
2023/07/04 12:08:44;;;;;;;8.80;2.50;;;21.20;89.00;;;;;;4966427;28;20414;-66
2023/07/04 12:11:20;;;;;;;6.93;2.40;;;20.90;90.10;;;;;;4978977;28;20445;-66
2023/07/04 12:13:49;;;;;;;8.85;2.70;;;20.60;91.00;;;;;;4965479;28;20407;-66
2023/07/04 12:16:19;;;;;;;9.30;2.78;;;20.40;90.10;;;;;;4972146;28;20491;-66
2023/07/04 12:18:45;;;;;;;13.32;2.83;;;20.30;90.30;;;;;;4968516;28;20416;-65
2023/07/04 12:21:20;;;;;;;10.60;2.70;;;20.30;90.50;;;;;;4951840;28;20933;-66
2023/07/04 12:23:46;;;;;;;10.63;2.75;;;20.30;87.40;;;;;;4969251;28;20459;-65
2023/07/04 12:26:23;;;;;;;9.10;2.90;;;20.20;86.10;;;;;;4976135;28;20419;-65
2023/07/04 12:28:49;;;;;;;9.93;2.90;;;20.10;87.20;;;;;;4971455;28;20400;-66
2023/07/04 12:31:15;;;;;;;10.65;3.20;;;20.00;88.00;;;;;;4966589;28;20412;-65
2023/07/04 12:33:44;;;;;;;11.05;3.10;;;20.00;88.40;;;;;;4969474;28;20495;-65
2023/07/04 12:36:15;;;;;;;9.60;2.67;;;20.00;88.20;;;;;;4969099;28;20424;-65
2023/07/04 12:38:46;;;;;;;10.60;2.70;;;20.00;89.30;;;;;;4970282;28;20882;-65
2023/07/04 12:41:20;;;;;;;9.60;2.50;;;20.00;88.70;;;;;;4975520;28;20762;-65
2023/07/04 12:43:56;;;;;;;15.83;3.07;;;20.00;87.50;;;;;;4969474;28;20477;-65
2023/07/04 12:46:22;;;;;;;11.77;3.00;;;20.00;89.20;;;;;;4969421;28;20437;-65
2023/07/04 12:48:48;;;;;;;11.10;2.92;;;19.80;89.10;;;;;;4971529;28;20439;-65
2023/07/04 12:51:17;;;;;;;10.07;2.75;;;19.80;90.10;;;;;;4974315;28;20441;-65
2023/07/04 12:53:44;;;;;;;11.63;3.03;;;19.70;90.60;;;;;;4961868;28;20424;-65
2023/07/04 12:56:11;;;;;;;9.50;3.15;;;19.90;91.20;;;;;;4972126;28;20420;-65